createdAt,value
2018-09-13T00:02:11.848Z,8.40
2018-09-13T00:04:40.174Z,8.23
2018-09-13T00:07:15.181Z,8.07
2018-09-13T00:09:43.506Z,8.27
2018-09-13T00:12:11.821Z,8.93
2018-09-13T00:14:40.150Z,8.47
2018-09-13T00:17:08.452Z,9.07
2018-09-13T00:19:36.826Z,8.50
2018-09-13T00:22:05.294Z,8.93
2018-09-13T00:24:33.621Z,8.23
2018-09-13T00:27:01.968Z,8.50
2018-09-13T00:29:30.277Z,8.90
2018-09-13T00:31:58.625Z,8.97
2018-09-13T00:34:26.961Z,8.40
2018-09-13T00:36:55.316Z,8.97
2018-09-13T00:39:23.637Z,8.80
2018-09-13T00:41:51.982Z,9.30
2018-09-13T00:44:20.293Z,9.80
2018-09-13T00:46:48.631Z,9.87
2018-09-13T00:49:16.948Z,9.00
2018-09-13T00:51:45.285Z,9.37
2018-09-13T00:54:13.588Z,7.70
2018-09-13T00:56:41.904Z,9.23
2018-09-13T00:59:10.250Z,9.87
2018-09-13T01:01:38.577Z,9.40
2018-09-13T01:04:06.930Z,10.20
2018-09-13T01:06:35.256Z,10.07
2018-09-13T01:09:04.125Z,10.70
2018-09-13T01:11:32.445Z,10.03
2018-09-13T01:14:00.805Z,9.63
2018-09-13T01:16:29.121Z,9.87
2018-09-13T01:18:57.451Z,9.37
2018-09-13T01:21:25.766Z,9.83
2018-09-13T01:23:54.146Z,9.50
2018-09-13T01:26:22.467Z,10.00
2018-09-13T01:28:50.817Z,9.83
2018-09-13T01:31:19.136Z,10.50
2018-09-13T01:33:47.478Z,10.50
2018-09-13T01:36:15.793Z,11.40
2018-09-13T01:38:44.104Z,10.67
2018-09-13T01:41:12.473Z,11.90
2018-09-13T01:43:40.813Z,11.73
2018-09-13T01:46:09.165Z,11.70
2018-09-13T01:48:37.486Z,11.67
2018-09-13T01:51:06.119Z,10.87
2018-09-13T01:53:34.440Z,11.87
2018-09-13T01:56:02.795Z,10.47
2018-09-13T01:58:31.129Z,11.53
2018-09-13T02:00:59.490Z,10.93
2018-09-13T02:03:27.813Z,11.60
2018-09-13T02:05:56.169Z,11.43
2018-09-13T02:08:24.486Z,11.40
2018-09-13T02:10:52.802Z,11.43
2018-09-13T02:13:21.141Z,12.63
2018-09-13T02:15:49.529Z,12.97
2018-09-13T02:18:17.873Z,11.10
2018-09-13T02:20:46.193Z,12.93
2018-09-13T02:23:14.556Z,13.07
2018-09-13T02:25:42.866Z,13.10
2018-09-13T02:28:11.346Z,12.80
2018-09-13T02:30:39.671Z,12.17
2018-09-13T02:33:08.026Z,11.80
2018-09-13T02:35:36.332Z,12.10
2018-09-13T02:38:04.732Z,11.10
2018-09-13T02:40:33.046Z,11.23
2018-09-13T02:43:01.381Z,10.77
2018-09-13T02:45:29.725Z,11.43
2018-09-13T02:47:58.040Z,11.33
2018-09-13T02:50:26.380Z,11.13
2018-09-13T02:52:54.787Z,12.90
2018-09-13T02:55:23.130Z,12.50
2018-09-13T02:57:51.453Z,13.30
2018-09-13T03:00:19.925Z,15.57
2018-09-13T03:02:48.237Z,16.43
2018-09-13T03:05:16.593Z,18.47
2018-09-13T03:07:44.897Z,19.57
2018-09-13T03:10:13.239Z,13.33
2018-09-13T03:12:41.557Z,13.10
2018-09-13T03:15:10.035Z,12.17
2018-09-13T03:17:38.346Z,12.13
2018-09-13T03:20:06.737Z,12.57
2018-09-13T03:22:35.050Z,13.53
2018-09-13T03:25:03.519Z,14.13
2018-09-13T03:27:31.885Z,14.70
2018-09-13T03:30:00.216Z,15.63
2018-09-13T03:32:28.661Z,15.67
2018-09-13T03:34:56.994Z,15.27
2018-09-13T03:37:25.333Z,16.83
2018-09-13T03:39:53.640Z,16.90
2018-09-13T03:42:21.972Z,16.33
2018-09-13T03:44:50.303Z,18.47
2018-09-13T03:47:18.650Z,18.87
2018-09-13T03:49:46.965Z,19.40
2018-09-13T03:52:15.308Z,19.27
2018-09-13T03:54:43.837Z,20.17
2018-09-13T03:57:12.174Z,22.07
2018-09-13T03:59:40.480Z,22.33
2018-09-13T04:02:08.813Z,21.10
2018-09-13T04:04:37.121Z,14.00
2018-09-13T04:07:05.448Z,15.23
2018-09-13T04:09:33.798Z,15.33
2018-09-13T04:12:02.128Z,14.93
2018-09-13T04:14:30.521Z,16.97
2018-09-13T04:16:58.844Z,24.67
2018-09-13T04:19:35.525Z,21.23
2018-09-13T04:22:03.849Z,18.00
2018-09-13T04:24:32.393Z,16.00
2018-09-13T04:27:00.705Z,17.13
2018-09-13T04:29:29.069Z,16.20
2018-09-13T04:31:57.369Z,16.80
2018-09-13T04:34:25.678Z,18.33
2018-09-13T04:36:54.029Z,20.10
2018-09-13T04:39:22.338Z,21.97
2018-09-13T04:41:50.701Z,24.60
2018-09-13T04:44:19.011Z,21.40
2018-09-13T04:46:47.377Z,19.10
2018-09-13T04:49:15.697Z,19.87
2018-09-13T04:51:44.102Z,18.07
2018-09-13T04:54:12.426Z,18.77
2018-09-13T04:56:40.799Z,20.40
2018-09-13T04:59:09.150Z,20.33
2018-09-13T05:01:39.217Z,21.80
2018-09-13T05:04:07.525Z,23.77
2018-09-13T05:06:35.957Z,23.07
2018-09-13T05:09:06.694Z,28.20
2018-09-13T05:11:34.996Z,25.20
2018-09-13T05:14:03.352Z,25.47
2018-09-13T05:16:31.765Z,24.70
2018-09-13T05:19:00.675Z,24.83
2018-09-13T05:21:29.026Z,25.63
2018-09-13T05:23:57.345Z,30.00
2018-09-13T05:26:25.682Z,29.23
2018-09-13T05:28:54.021Z,28.73
2018-09-13T05:31:22.681Z,28.03
2018-09-13T05:33:51.016Z,26.60
2018-09-13T05:36:19.337Z,22.33
2018-09-13T05:38:47.716Z,20.67
2018-09-13T05:41:16.035Z,21.27
2018-09-13T05:43:44.405Z,20.47
2018-09-13T05:46:12.944Z,17.67
2018-09-13T05:48:41.286Z,17.90
2018-09-13T05:51:09.656Z,19.17
2018-09-13T05:53:37.961Z,17.23
2018-09-13T05:56:06.283Z,17.23
2018-09-13T05:58:34.597Z,17.33
2018-09-13T06:01:02.941Z,17.57
2018-09-13T06:03:31.257Z,19.20
2018-09-13T06:05:59.605Z,18.17
2018-09-13T06:08:27.933Z,18.67
2018-09-13T06:10:56.275Z,21.90
2018-09-13T06:13:24.639Z,20.27
2018-09-13T06:15:53.000Z,20.50
2018-09-13T06:18:21.317Z,21.30
2018-09-13T06:20:49.741Z,19.33
2018-09-13T06:23:18.068Z,21.40
2018-09-13T06:25:46.416Z,22.10
2018-09-13T06:28:14.741Z,21.53
2018-09-13T06:30:43.076Z,24.17
2018-09-13T06:33:11.401Z,24.63
2018-09-13T06:35:39.754Z,23.80
2018-09-13T06:38:08.133Z,24.43
2018-09-13T06:40:36.461Z,22.70
2018-09-13T06:43:04.801Z,23.57
2018-09-13T06:45:33.213Z,23.37
2018-09-13T06:48:01.566Z,22.67
2018-09-13T06:50:29.884Z,22.23
2018-09-13T06:52:58.216Z,23.80
2018-09-13T06:55:26.541Z,24.10
2018-09-13T06:57:54.897Z,25.10
2018-09-13T07:00:23.211Z,24.63
2018-09-13T07:02:51.554Z,24.63
2018-09-13T07:05:19.896Z,24.23
2018-09-13T07:07:48.242Z,23.43
2018-09-13T07:10:16.560Z,22.50
2018-09-13T07:12:44.893Z,21.27
2018-09-13T07:15:13.192Z,21.10
2018-09-13T07:17:41.630Z,21.13
2018-09-13T07:20:09.936Z,19.70
2018-09-13T07:22:38.309Z,19.43
2018-09-13T07:25:06.678Z,19.80
2018-09-13T07:27:35.020Z,19.10
2018-09-13T07:30:06.729Z,19.50
2018-09-13T07:32:35.078Z,18.77
2018-09-13T07:35:03.397Z,18.40
2018-09-13T07:37:31.713Z,19.00
2018-09-13T07:40:00.045Z,18.40
2018-09-13T07:42:28.541Z,18.47
2018-09-13T07:44:56.867Z,17.83
2018-09-13T07:47:25.249Z,17.50
2018-09-13T07:49:53.688Z,16.87
2018-09-13T07:52:21.917Z,16.33
2018-09-13T07:54:50.281Z,16.80
2018-09-13T07:57:18.606Z,16.83
2018-09-13T07:59:46.970Z,15.50
2018-09-13T08:02:15.285Z,15.83
2018-09-13T08:04:43.624Z,12.43
2018-09-13T08:07:11.973Z,15.30
2018-09-13T08:09:40.317Z,15.40
2018-09-13T08:12:08.796Z,14.20
2018-09-13T08:14:37.248Z,13.20
2018-09-13T08:17:05.584Z,13.63
2018-09-13T08:19:33.909Z,14.57
2018-09-13T08:22:02.489Z,14.40
2018-09-13T08:24:30.768Z,13.53
2018-09-13T08:26:59.156Z,12.40
2018-09-13T08:29:27.526Z,11.40
2018-09-13T08:31:55.881Z,13.07
2018-09-13T08:34:24.208Z,13.37
2018-09-13T08:36:55.217Z,12.07
2018-09-13T08:39:26.232Z,12.60
2018-09-13T08:42:04.835Z,13.40
2018-09-13T08:44:33.198Z,11.30
2018-09-13T08:47:01.528Z,12.47
2018-09-13T08:49:29.844Z,12.67
2018-09-13T08:51:58.243Z,12.27
2018-09-13T08:54:26.546Z,12.57
2018-09-13T08:56:54.870Z,11.03
2018-09-13T08:59:23.212Z,11.47
2018-09-13T09:01:51.530Z,11.70
2018-09-13T09:04:19.861Z,12.27
2018-09-13T09:06:48.975Z,13.23
2018-09-13T09:09:17.354Z,12.77
2018-09-13T09:11:45.788Z,11.87
2018-09-13T09:14:14.041Z,13.27
2018-09-13T09:16:42.368Z,12.80
2018-09-13T09:19:10.752Z,12.90
2018-09-13T09:21:39.078Z,13.30
2018-09-13T09:24:07.446Z,13.23
2018-09-13T09:26:35.801Z,13.30
2018-09-13T09:29:04.271Z,13.57
2018-09-13T09:31:32.573Z,12.93
2018-09-13T09:34:00.890Z,13.00
2018-09-13T09:36:29.243Z,12.10
2018-09-13T09:38:57.605Z,11.87
2018-09-13T09:41:25.944Z,12.00
2018-09-13T09:43:54.261Z,12.87
2018-09-13T09:46:22.656Z,12.77
2018-09-13T09:48:50.961Z,12.10
2018-09-13T09:51:19.354Z,12.30
2018-09-13T09:53:47.660Z,11.00
2018-09-13T09:56:16.076Z,10.70
2018-09-13T09:58:44.344Z,12.10
2018-09-13T10:01:18.149Z,11.93
2018-09-13T10:03:46.478Z,11.70
2018-09-13T10:06:14.813Z,11.73
2018-09-13T10:08:43.136Z,11.30
2018-09-13T10:11:11.472Z,10.20
2018-09-13T10:13:40.005Z,11.30
2018-09-13T10:16:13.696Z,10.70
2018-09-13T10:18:44.166Z,11.53
2018-09-13T10:21:17.852Z,11.50
2018-09-13T10:23:51.630Z,11.53
2018-09-13T10:26:25.434Z,10.60
2018-09-13T10:28:59.138Z,10.57
2018-09-13T10:31:32.898Z,10.33
2018-09-13T10:34:06.586Z,10.40
2018-09-13T10:36:40.389Z,11.33
2018-09-13T10:39:14.410Z,10.53
2018-09-13T10:41:48.332Z,9.67
2018-09-13T10:44:22.121Z,9.40
2018-09-13T10:46:55.866Z,9.93
2018-09-13T10:49:29.443Z,10.23
2018-09-13T10:52:03.061Z,9.97
2018-09-13T10:54:36.162Z,9.87
2018-09-13T10:57:10.001Z,9.43
2018-09-13T10:59:38.330Z,9.33
2018-09-13T11:02:06.758Z,9.63
2018-09-13T11:04:35.736Z,9.50
2018-09-13T11:07:04.059Z,9.70
2018-09-13T11:09:32.432Z,9.23
2018-09-13T11:12:00.861Z,9.13
2018-09-13T11:15:09.824Z,8.53
2018-09-13T11:17:38.172Z,8.70
2018-09-13T11:20:06.614Z,10.27
2018-09-13T11:22:34.958Z,8.50
2018-09-13T11:25:03.312Z,9.17
2018-09-13T11:27:31.621Z,8.73
2018-09-13T11:30:00.003Z,8.50
2018-09-13T11:32:28.317Z,8.50
2018-09-13T11:34:56.667Z,9.03
2018-09-13T11:37:25.029Z,9.20
2018-09-13T11:39:53.428Z,9.03
2018-09-13T11:42:21.737Z,8.83
2018-09-13T11:44:50.248Z,8.63
2018-09-13T11:47:18.570Z,9.17
2018-09-13T11:49:46.934Z,8.53
2018-09-13T11:52:15.282Z,8.73
2018-09-13T11:54:43.765Z,8.73
2018-09-13T11:57:12.089Z,8.43
2018-09-13T11:59:40.429Z,8.37
2018-09-13T12:02:08.745Z,8.83
2018-09-13T12:04:37.110Z,8.37
2018-09-13T12:07:05.444Z,8.83
2018-09-13T12:09:33.810Z,8.27
2018-09-13T12:12:02.104Z,8.23
2018-09-13T12:14:30.424Z,8.47
2018-09-13T12:16:58.760Z,8.17
2018-09-13T12:19:27.084Z,7.83
2018-09-13T12:21:55.421Z,7.20
2018-09-13T12:24:23.730Z,7.80
2018-09-13T12:26:52.053Z,7.20
2018-09-13T12:29:20.370Z,8.03
2018-09-13T12:31:48.748Z,7.23
2018-09-13T12:34:17.096Z,7.07
2018-09-13T12:36:45.444Z,6.80
2018-09-13T12:39:13.801Z,7.07
2018-09-13T12:41:42.341Z,7.07
2018-09-13T12:44:11.205Z,7.13
2018-09-13T12:46:39.704Z,7.50
2018-09-13T12:49:08.017Z,7.83
2018-09-13T12:51:36.353Z,6.87
2018-09-13T12:54:04.669Z,7.03
2018-09-13T12:56:33.033Z,6.57
2018-09-13T12:59:01.345Z,7.23
2018-09-13T13:01:29.653Z,7.27
2018-09-13T13:03:57.997Z,7.07
2018-09-13T13:06:26.344Z,7.47
2018-09-13T13:08:54.744Z,6.67
2018-09-13T13:11:23.061Z,7.47
2018-09-13T13:13:51.397Z,6.23
2018-09-13T13:16:19.727Z,6.20
2018-09-13T13:18:48.073Z,7.03
2018-09-13T13:21:16.436Z,6.43
2018-09-13T13:23:44.776Z,6.47
2018-09-13T13:26:13.076Z,6.67
2018-09-13T13:28:42.283Z,6.43
2018-09-13T13:31:10.600Z,7.03
2018-09-13T13:33:38.945Z,6.97
2018-09-13T13:36:07.273Z,6.90
2018-09-13T13:38:35.635Z,7.40
2018-09-13T13:41:03.997Z,7.27
2018-09-13T13:43:32.371Z,7.53
2018-09-13T13:46:00.695Z,7.17
2018-09-13T13:48:29.121Z,7.60
2018-09-13T13:50:57.421Z,7.33
2018-09-13T13:53:25.741Z,7.50
2018-09-13T13:55:54.113Z,7.50
2018-09-13T13:58:22.457Z,7.30
2018-09-13T14:00:50.788Z,7.67
2018-09-13T14:03:19.110Z,7.27
2018-09-13T14:05:47.444Z,7.90
2018-09-13T14:08:15.783Z,8.27
2018-09-13T14:10:44.117Z,7.80
2018-09-13T14:13:12.445Z,7.87
2018-09-13T14:15:40.785Z,8.27
2018-09-13T14:18:09.091Z,8.53
2018-09-13T14:20:37.499Z,8.53
2018-09-13T14:23:05.881Z,8.80
2018-09-13T14:25:34.232Z,8.93
2018-09-13T14:28:02.565Z,9.63
2018-09-13T14:30:30.919Z,8.50
2018-09-13T14:32:59.251Z,8.70
2018-09-13T14:35:27.640Z,9.70
2018-09-13T14:37:55.947Z,10.47
2018-09-13T14:40:24.325Z,9.93
2018-09-13T14:42:52.670Z,9.13
2018-09-13T14:45:21.010Z,9.70
2018-09-13T14:47:49.341Z,10.20
2018-09-13T14:50:17.681Z,12.67
2018-09-13T14:52:46.010Z,12.57
2018-09-13T14:55:14.357Z,11.33
2018-09-13T14:57:42.670Z,12.17
2018-09-13T15:00:11.149Z,13.40
2018-09-13T15:02:39.456Z,13.03
2018-09-13T15:05:08.131Z,13.03
2018-09-13T15:07:36.444Z,13.23
2018-09-13T15:10:05.165Z,13.93
2018-09-13T15:12:33.497Z,12.07
2018-09-13T15:15:01.856Z,11.67
2018-09-13T15:17:30.220Z,12.17
2018-09-13T15:19:58.570Z,11.77
2018-09-13T15:22:26.884Z,12.50
2018-09-13T15:24:55.234Z,12.07
2018-09-13T15:27:23.563Z,13.70
2018-09-13T15:29:51.908Z,12.57
2018-09-13T15:32:20.230Z,14.40
2018-09-13T15:34:48.614Z,15.30
2018-09-13T15:37:16.938Z,15.80
2018-09-13T15:39:45.253Z,15.40
2018-09-13T15:42:13.602Z,15.63
2018-09-13T15:44:41.952Z,15.93
2018-09-13T15:47:10.317Z,18.13
2018-09-13T15:49:38.633Z,16.90
2018-09-13T15:52:06.977Z,16.70
2018-09-13T15:54:35.292Z,16.93
2018-09-13T15:57:03.653Z,17.37
2018-09-13T15:59:32.079Z,17.47
2018-09-13T16:02:00.405Z,17.50
2018-09-13T16:04:28.730Z,13.83
2018-09-13T16:06:57.072Z,13.47
2018-09-13T16:09:25.393Z,14.37
2018-09-13T16:11:53.733Z,13.80
2018-09-13T16:14:22.053Z,14.20
2018-09-13T16:16:50.396Z,13.10
2018-09-13T16:19:18.725Z,12.40
2018-09-13T16:21:47.052Z,13.13
2018-09-13T16:24:15.377Z,13.50
2018-09-13T16:26:43.722Z,14.63
2018-09-13T16:29:12.045Z,13.73
2018-09-13T16:31:40.457Z,15.20
2018-09-13T16:34:08.782Z,15.70
2018-09-13T16:36:39.627Z,16.20
2018-09-13T16:39:21.877Z,15.13
2018-09-13T16:41:55.685Z,13.93
2018-09-13T16:44:29.428Z,14.70
2018-09-13T16:47:05.835Z,16.23
2018-09-13T16:49:36.588Z,15.37
2018-09-13T16:52:04.937Z,16.77
2018-09-13T16:54:33.255Z,15.07
2018-09-13T16:57:02.058Z,16.53
2018-09-13T16:59:30.405Z,16.50
2018-09-13T17:01:59.020Z,16.70
2018-09-13T17:04:27.362Z,16.47
2018-09-13T17:06:55.740Z,17.00
2018-09-13T17:09:24.073Z,15.33
2018-09-13T17:11:52.413Z,16.17
2018-09-13T17:14:20.763Z,15.83
2018-09-13T17:16:49.365Z,14.93
2018-09-13T17:19:17.701Z,15.83
2018-09-13T17:21:46.021Z,15.37
2018-09-13T17:24:14.575Z,15.67
2018-09-13T17:26:42.888Z,16.00
2018-09-13T17:29:11.226Z,14.80
2018-09-13T17:31:39.546Z,16.00
2018-09-13T17:34:07.899Z,14.47
2018-09-13T17:36:36.226Z,14.63
2018-09-13T17:39:08.349Z,14.00
2018-09-13T17:41:36.680Z,15.17
2018-09-13T17:44:05.056Z,15.23
2018-09-13T17:46:33.374Z,14.30
2018-09-13T17:49:01.744Z,14.70
2018-09-13T17:51:30.066Z,16.90
2018-09-13T17:53:58.418Z,17.13
2018-09-13T17:56:26.776Z,15.77
2018-09-13T17:58:55.197Z,16.63
2018-09-13T18:01:23.517Z,16.47
2018-09-13T18:03:51.890Z,17.67
2018-09-13T18:06:20.612Z,16.10
2018-09-13T18:08:48.974Z,16.53
2018-09-13T18:11:17.311Z,16.53
2018-09-13T18:13:45.656Z,17.30
2018-09-13T18:16:13.968Z,17.17
2018-09-13T18:18:42.430Z,17.97
2018-09-13T18:21:10.796Z,17.90
2018-09-13T18:23:39.199Z,15.67
2018-09-13T18:26:07.481Z,18.20
2018-09-13T18:28:35.788Z,17.63
2018-09-13T18:31:04.517Z,17.30
2018-09-13T18:33:32.981Z,17.93
2018-09-13T18:36:01.582Z,18.13
2018-09-13T18:38:29.916Z,19.53
2018-09-13T18:40:58.271Z,20.47
2018-09-13T18:43:26.584Z,20.57
2018-09-13T18:45:54.957Z,19.77
2018-09-13T18:48:23.305Z,19.77
2018-09-13T18:50:51.658Z,20.27
2018-09-13T18:53:19.965Z,21.57
2018-09-13T18:55:48.327Z,20.93
2018-09-13T18:58:16.672Z,20.87
2018-09-13T19:00:45.013Z,21.80
2018-09-13T19:03:13.337Z,21.70
2018-09-13T19:05:41.677Z,20.63
2018-09-13T19:08:10.081Z,22.37
2018-09-13T19:10:38.367Z,21.47
2018-09-13T19:13:06.860Z,22.27
2018-09-13T19:15:35.208Z,21.33
2018-09-13T19:18:03.554Z,21.27
2018-09-13T19:20:31.929Z,20.60
2018-09-13T19:23:00.244Z,21.23
2018-09-13T19:25:28.597Z,20.90
2018-09-13T19:27:56.912Z,20.13
2018-09-13T19:30:25.265Z,20.90
2018-09-13T19:32:53.628Z,19.23
2018-09-13T19:35:22.253Z,19.57
2018-09-13T19:37:50.582Z,19.87
2018-09-13T19:40:18.912Z,19.90
2018-09-13T19:42:48.009Z,20.30
2018-09-13T19:45:16.338Z,20.93
2018-09-13T19:47:44.668Z,20.27
2018-09-13T19:50:13.113Z,19.03
2018-09-13T19:52:41.507Z,19.43
2018-09-13T19:55:09.816Z,20.80
2018-09-13T19:57:38.120Z,19.27
2018-09-13T20:00:07.069Z,18.80
2018-09-13T20:02:35.380Z,20.87
2018-09-13T20:05:03.813Z,20.43
2018-09-13T20:07:32.096Z,20.43
2018-09-13T20:10:00.413Z,20.33
2018-09-13T20:12:28.741Z,20.27
2018-09-13T20:14:57.064Z,20.50
2018-09-13T20:17:25.613Z,20.93
2018-09-13T20:19:53.940Z,20.63
2018-09-13T20:22:22.273Z,20.67
2018-09-13T20:24:50.590Z,22.03
2018-09-13T20:27:18.932Z,21.80
2018-09-13T20:29:47.245Z,21.87
2018-09-13T20:32:15.585Z,21.67
2018-09-13T20:34:43.897Z,23.10
2018-09-13T20:37:12.228Z,24.60
2018-09-13T20:39:40.536Z,24.57
2018-09-13T20:42:08.873Z,24.63
2018-09-13T20:44:37.196Z,24.80
2018-09-13T20:47:05.548Z,25.67
2018-09-13T20:49:33.885Z,27.23
2018-09-13T20:52:02.241Z,27.93
2018-09-13T20:54:30.554Z,28.67
2018-09-13T20:56:58.882Z,33.00
2018-09-13T20:59:27.199Z,32.57
2018-09-13T21:01:55.562Z,34.67
2018-09-13T21:04:23.896Z,35.60
2018-09-13T21:06:52.245Z,36.43
2018-09-13T21:09:20.557Z,37.20
2018-09-13T21:11:48.880Z,34.33
2018-09-13T21:14:17.197Z,35.33
2018-09-13T21:16:45.530Z,33.90
2018-09-13T21:19:13.861Z,34.40
2018-09-13T21:21:42.189Z,37.30
2018-09-13T21:24:10.582Z,36.37
2018-09-13T21:26:38.852Z,33.20
2018-09-13T21:29:07.161Z,33.33
2018-09-13T21:31:35.490Z,38.00
2018-09-13T21:34:03.826Z,35.17
2018-09-13T21:36:32.163Z,34.83
2018-09-13T21:39:00.499Z,36.87
2018-09-13T21:41:29.063Z,33.07
2018-09-13T21:43:57.382Z,33.80
2018-09-13T21:46:25.703Z,35.33
2018-09-13T21:48:54.057Z,38.47
2018-09-13T21:51:22.373Z,36.20
2018-09-13T21:53:50.713Z,37.90
2018-09-13T21:56:19.033Z,35.43
2018-09-13T21:58:47.436Z,35.83
2018-09-13T22:01:15.741Z,37.43
2018-09-13T22:03:44.085Z,33.80
2018-09-13T22:06:12.395Z,35.00
2018-09-13T22:08:40.736Z,38.40
2018-09-13T22:11:09.073Z,37.47
2018-09-13T22:13:37.457Z,37.90
2018-09-13T22:16:05.773Z,40.43
2018-09-13T22:18:34.128Z,37.13
2018-09-13T22:21:02.446Z,36.40
2018-09-13T22:23:30.809Z,41.47
2018-09-13T22:25:59.132Z,41.63
2018-09-13T22:28:27.465Z,40.37
2018-09-13T22:30:55.783Z,42.73
2018-09-13T22:33:24.145Z,40.87
2018-09-13T22:35:52.461Z,39.83
2018-09-13T22:38:20.814Z,44.67
2018-09-13T22:40:49.135Z,41.17
2018-09-13T22:43:17.753Z,39.43
2018-09-13T22:45:46.085Z,41.23
2018-09-13T22:48:14.438Z,42.27
2018-09-13T22:50:42.754Z,44.43
2018-09-13T22:53:11.091Z,44.63
2018-09-13T22:55:39.401Z,36.67
2018-09-13T22:58:07.746Z,34.73
2018-09-13T23:00:36.062Z,37.90
2018-09-13T23:03:04.444Z,39.10
2018-09-13T23:05:32.789Z,39.90
2018-09-13T23:08:01.113Z,39.30
2018-09-13T23:10:29.450Z,40.77
2018-09-13T23:12:57.762Z,43.53
2018-09-13T23:15:26.097Z,43.20
2018-09-13T23:17:54.453Z,43.60
2018-09-13T23:20:22.797Z,42.23
2018-09-13T23:22:51.127Z,41.07
2018-09-13T23:25:19.469Z,42.53
2018-09-13T23:27:47.810Z,43.47
2018-09-13T23:30:16.161Z,45.97
2018-09-13T23:32:44.475Z,49.47
2018-09-13T23:35:12.811Z,51.03
2018-09-13T23:37:41.134Z,51.63
2018-09-13T23:40:09.665Z,51.93
2018-09-13T23:42:37.873Z,47.67
2018-09-13T23:45:06.235Z,46.60
2018-09-13T23:47:34.560Z,44.37
2018-09-13T23:50:02.931Z,47.67
2018-09-13T23:52:31.252Z,41.73
2018-09-13T23:54:59.588Z,37.07
2018-09-13T23:57:27.920Z,44.87
2018-09-13T23:59:56.261Z,41.17
